61C weather

Fort Atkinson Municipal Airport
Fort Atkinson, Wisconsin, United States

Public forecast

Using degrees Fahrenheit for public forecast. Weather courtesy of forecast.io.

Closest aviation weather report (METAR) to Fort Atkinson Municipal Airport

Closest report is Watertown Municipal Airport, 13.1 nm (24.2 km) NNE. Retrieved 2020/05/25 14:35 UTC (0 seconds ago):

KRYV 251435Z AUTO 20010KT 10SM SCT012 SCT080 22/21 A2994 RMK AO2 T02220208

Closest aviation forecast (TAF) to Fort Atkinson Municipal Airport

Closest forecast is Dane County Regional Truax Field, 25.2 nm (46.6 km) WNW. Retrieved 2020/05/25 12:24 UTC (2 hours ago):

TAF KMSN 251123Z 2512/2612 18005KT P6SM SCT100 BKN250 FM260900 16003KT P6SM BKN100